Time;durP1;ratioP1;P1;durP2;ratioP2;P2;SDS_P1;SDS_P2;PMS_P1;PMS_P2;Temp;Humidity;BMP_temperature;BMP_pressure;BME280_temperature;BME280_humidity;BME280_pressure;Samples;Min_cycle;Max_cycle;Signal;HPM_P1;HPM_P2
2022/04/28 00:05:22;;;;;;;1.90;1.17;;;13.80;99.90;;;;;;20410026;29;20747;-67
2022/04/28 00:15:24;;;;;;;1.70;1.17;;;;;;;;;;20377981;29;20573;-67
2022/04/28 00:25:27;;;;;;;1.87;1.30;;;;;;;;;;20424706;29;20247;-67
2022/04/28 00:35:28;;;;;;;1.77;1.23;;;;;;;;;;20420532;28;20302;-67
2022/04/28 00:45:30;;;;;;;1.93;1.40;;;;;;;;;;20430643;28;20266;-67
2022/04/28 00:55:32;;;;;;;2.00;1.30;;;;;;;;;;20401096;29;20252;-67
2022/04/28 01:05:34;;;;;;;2.00;1.27;;;;;;;;;;20406763;29;20260;-67
2022/04/28 01:15:49;;;;;;;2.30;1.50;;;12.70;99.90;;;;;;20452185;28;20230;-67
2022/04/28 01:25:52;;;;;;;1.73;1.20;;;;;;;;;;20403619;29;20570;-67
2022/04/28 01:35:54;;;;;;;3.23;1.23;;;;;;;;;;20418234;29;20363;-67
2022/04/28 01:45:56;;;;;;;2.90;1.50;;;;;;;;;;20418160;29;20267;-67
2022/04/28 01:56:12;;;;;;;2.20;1.33;;;;;;;;;;20430786;29;20248;-68
2022/04/28 02:06:33;;;;;;;1.40;0.90;;;;;;;;;;20417122;29;20210;-68
2022/04/28 02:16:35;;;;;;;1.70;1.20;;;;;;;;;;20416543;29;20295;-68
2022/04/28 02:26:46;;;;;;;2.27;1.40;;;;;;;;;;20430674;29;20229;-67
2022/04/28 02:36:48;;;;;;;2.57;1.70;;;;;;;;;;20414998;29;20651;-67
2022/04/28 02:46:50;;;;;;;1.83;1.00;;;;;;;;;;20414504;29;20276;-68
2022/04/28 02:57:00;;;;;;;2.30;1.70;;;;;;;;;;20428724;29;20751;-68
2022/04/28 03:17:23;;;;;;;1.70;1.30;;;;;;;;;;20412696;29;20697;-68
2022/04/28 03:27:27;;;;;;;1.87;1.23;;;;;;;;;;20412711;29;20217;-68
2022/04/28 03:37:29;;;;;;;1.90;1.40;;;;;;;;;;20438600;28;20234;-68
2022/04/28 03:47:37;;;;;;;2.13;1.47;;;11.60;99.90;;;;;;20410952;29;20213;-66
2022/04/28 03:57:40;;;;;;;1.43;1.13;;;;;;;;;;20404682;28;20229;-66
2022/04/28 04:07:44;;;;;;;2.87;1.40;;;;;;;;;;20415538;29;20222;-66
2022/04/28 04:17:51;;;;;;;2.93;1.80;;;;;;;;;;20409465;29;20257;-67
2022/04/28 04:27:55;;;;;;;3.03;1.73;;;;;;;;;;20407960;29;20221;-68
2022/04/28 04:38:32;;;;;;;2.53;1.37;;;;;;;;;;20460926;28;20229;-68
2022/04/28 04:48:35;;;;;;;1.90;1.40;;;;;;;;;;20416195;28;20811;-68
2022/04/28 04:58:42;;;;;;;4.17;1.60;;;;;;;;;;20415740;29;20248;-68
2022/04/28 05:08:44;;;;;;;3.53;1.50;;;;;;;;;;20391780;29;20236;-68
2022/04/28 05:18:47;;;;;;;1.67;1.10;;;;;;;;;;20499651;28;20230;-68
2022/04/28 05:29:16;;;;;;;2.33;1.67;;;;;;;;;;20444545;22;20241;-67
2022/04/28 05:39:29;;;;;;;3.33;1.67;;;17.30;99.90;;;;;;20962123;28;20286;-67
2022/04/28 05:49:31;;;;;;;2.93;1.93;;;;;;;;;;20961039;28;20702;-67
2022/04/28 05:59:34;;;;;;;3.00;1.80;;;;;;;;;;20889468;28;20225;-67
2022/04/28 06:09:54;;;;;;;3.23;1.67;;;;;;;;;;20880481;28;20202;-67
2022/04/28 06:20:00;;;;;;;2.40;1.77;;;;;;;;;;20879937;28;20578;-66
2022/04/28 06:30:41;;;;;;;2.80;1.90;;;;;;;;;;20875571;28;20252;-67
2022/04/28 06:41:06;;;;;;;2.73;2.00;;;;;;;;;;20891876;28;20283;-66
2022/04/28 06:51:10;;;;;;;3.23;1.90;;;;;;;;;;20882278;28;20786;-69
2022/04/28 07:01:41;;;;;;;2.37;1.57;;;;;;;;;;20913180;28;20234;-66
2022/04/28 07:11:43;;;;;;;2.37;1.77;;;;;;;;;;20922807;28;20791;-67
2022/04/28 07:22:05;;;;;;;2.50;1.97;;;;;;;;;;20915647;28;20209;-67
2022/04/28 07:32:08;;;;;;;2.47;1.73;;;;;;;;;;20857546;28;20289;-67
2022/04/28 07:42:36;;;;;;;3.37;2.27;;;;;;;;;;20791734;28;20235;-67
2022/04/28 07:52:39;;;;;;;2.87;2.03;;;;;;;;;;20818563;28;20627;-66
2022/04/28 08:02:42;;;;;;;3.10;2.13;;;;;;;;;;20845371;28;20218;-66
2022/04/28 08:12:48;;;;;;;2.60;2.10;;;;;;;;;;20798646;28;20245;-67
2022/04/28 08:23:16;;;;;;;4.17;2.13;;;16.20;99.90;;;;;;20778000;28;20253;-67
2022/04/28 08:33:18;;;;;;;5.30;2.00;;;;;;;;;;20788145;28;20292;-67
2022/04/28 08:43:20;;;;;;;3.37;2.03;;;;;;;;;;20779240;28;20232;-67
2022/04/28 08:53:22;;;;;;;2.73;1.73;;;;;;;;;;20853615;28;20218;-68
2022/04/28 09:03:24;;;;;;;2.53;1.70;;;;;;;;;;20853995;28;20210;-68
2022/04/28 09:24:00;;;;;;;2.00;1.63;;;;;;;;;;20885270;28;20633;-68
2022/04/28 09:34:14;;;;;;;2.50;2.03;;;18.20;99.90;;;;;;20868115;28;20742;-67
2022/04/28 09:44:43;;;;;;;3.20;1.80;;;18.60;99.90;;;;;;20884477;28;20210;-67
2022/04/28 09:54:51;;;;;;;1.90;1.50;;;18.80;99.90;;;;;;20882691;28;20221;-67
2022/04/28 10:04:55;;;;;;;3.30;1.50;;;;;;;;;;20866032;28;20190;-68
2022/04/28 10:15:21;;;;;;;2.43;1.60;;;19.00;99.90;;;;;;20884362;28;20214;-67
2022/04/28 10:35:48;;;;;;;1.77;1.10;;;19.90;98.90;;;;;;20879113;28;20291;-68
2022/04/28 10:45:51;;;;;;;3.50;2.03;;;16.50;99.90;;;;;;20862816;28;20206;-68
2022/04/28 10:55:53;;;;;;;1.17;0.90;;;;;;;;;;20862108;28;20221;-68
2022/04/28 11:06:10;;;;;;;1.43;1.10;;;19.80;99.90;;;;;;20877554;28;20207;-68
2022/04/28 11:16:13;;;;;;;2.67;0.90;;;;;;;;;;20876963;28;20248;-68
2022/04/28 11:26:15;;;;;;;0.97;0.70;;;20.40;99.90;;;;;;20859625;28;20751;-68
2022/04/28 11:36:23;;;;;;;1.13;0.70;;;;;;;;;;20866330;22;20776;-83
2022/04/28 11:46:25;;;;;;;2.50;1.30;;;21.10;95.00;;;;;;20814523;28;20213;-82
2022/04/28 11:56:30;;;;;;;1.27;0.90;;;;;;;;;;20828820;28;20232;-82
2022/04/28 12:06:33;;;;;;;1.43;0.83;;;;;;;;;;20809667;28;20220;-80
2022/04/28 12:26:55;;;;;;;1.93;0.80;;;;;;;;;;20795074;28;20538;-81
2022/04/28 12:36:58;;;;;;;1.37;0.80;;;;;;;;;;20791921;28;20249;-80
2022/04/28 12:47:05;;;;;;;1.60;1.00;;;20.70;86.40;;;;;;20852707;28;20170;-80
2022/04/28 12:57:08;;;;;;;1.30;0.70;;;;;;;;;;20825660;28;20233;-82
2022/04/28 13:07:09;;;;;;;1.97;0.87;;;;;;;;;;20840838;28;20290;-81
2022/04/28 13:17:12;;;;;;;1.10;0.70;;;;;;;;;;20806611;28;20310;-82
2022/04/28 13:27:14;;;;;;;1.37;0.90;;;;;;;;;;20805571;28;20228;-81
2022/04/28 13:37:16;;;;;;;1.07;0.80;;;;;;;;;;20805979;28;20599;-81
2022/04/28 13:47:18;;;;;;;3.10;0.90;;;;;;;;;;20820824;28;20272;-82
2022/04/28 13:57:20;;;;;;;2.13;1.10;;;;;;;;;;20819186;28;20725;-82
2022/04/28 14:07:22;;;;;;;1.37;0.80;;;;;;;;;;20851247;28;20242;-82
2022/04/28 14:17:24;;;;;;;1.77;0.80;;;22.60;90.70;;;;;;20833980;28;20224;-82
2022/04/28 14:27:26;;;;;;;2.30;0.87;;;;;;;;;;20833127;28;20732;-82
2022/04/28 14:37:28;;;;;;;1.90;0.80;;;;;;;;;;20815890;28;20233;-81
2022/04/28 14:47:30;;;;;;;0.87;0.63;;;;;;;;;;20815394;28;20209;-81
2022/04/28 14:57:33;;;;;;;1.83;1.00;;;;;;;;;;20830957;28;20279;-81
2022/04/28 15:07:37;;;;;;;2.50;0.80;;;;;;;;;;20831984;28;20615;-82
2022/04/28 15:17:40;;;;;;;1.30;0.90;;;;;;;;;;20798165;28;20313;-82
2022/04/28 15:27:42;;;;;;;2.57;0.80;;;22.70;84.20;;;;;;20780605;28;20283;-83
2022/04/28 15:37:44;;;;;;;2.65;0.73;;;;;;;;;;20812341;28;20281;-82
2022/04/28 15:47:47;;;;;;;1.75;0.90;;;;;;;;;;20811344;28;20628;-82
2022/04/28 15:57:50;;;;;;;1.33;0.70;;;;;;;;;;20810648;28;20289;-82
2022/04/28 16:07:53;;;;;;;1.00;0.57;;;;;;;;;;20825672;28;20214;-81
2022/04/28 16:17:54;;;;;;;1.17;0.70;;;;;;;;;;20808498;28;20226;-83
2022/04/28 16:27:56;;;;;;;0.63;0.53;;;;;;;;;;20772788;28;20216;-82
2022/04/28 16:37:58;;;;;;;1.53;0.70;;;;;;;;;;20791937;28;20305;-82
2022/04/28 16:48:00;;;;;;;1.63;0.63;;;;;;;;;;20808586;28;20270;-82
2022/04/28 16:58:03;;;;;;;0.97;0.60;;;;;;;;;;20808198;28;20245;-82
2022/04/28 17:08:05;;;;;;;1.17;0.70;;;;;;;;;;20775981;28;20247;-81
2022/04/28 17:18:07;;;;;;;0.83;0.50;;;;;;;;;;20807946;28;20225;-82
2022/04/28 17:28:12;;;;;;;2.30;0.60;;;;;;;;;;20826103;28;20630;-83
2022/04/28 17:38:15;;;;;;;0.97;0.67;;;;;;;;;;20823853;28;20253;-82
2022/04/28 17:48:18;;;;;;;1.10;0.50;;;;;;;;;;20757461;28;20206;-83
2022/04/28 18:08:41;;;;;;;2.27;1.07;;;;;;;;;;20808253;28;20279;-83
2022/04/28 18:18:43;;;;;;;2.00;0.90;;;;;;;;;;20797755;28;20230;-83
2022/04/28 18:28:45;;;;;;;0.90;0.70;;;;;;;;;;20772345;28;20222;-83
2022/04/28 18:49:08;;;;;;;0.70;0.50;;;;;;;;;;20800382;28;20213;-83
2022/04/28 18:59:10;;;;;;;1.27;0.63;;;;;;;;;;20830201;28;20232;-82
2022/04/28 19:09:13;;;;;;;1.73;0.80;;;;;;;;;;20780937;28;20221;-83
2022/04/28 19:19:15;;;;;;;1.27;0.60;;;;;;;;;;20799567;28;20299;-82
2022/04/28 19:29:17;;;;;;;2.23;0.60;;;20.20;97.70;;;;;;20842294;28;20254;-82
2022/04/28 19:39:23;;;;;;;1.80;1.20;;;19.60;99.60;;;;;;20823043;28;20659;-83
2022/04/28 19:49:25;;;;;;;3.47;1.37;;;;;;;;;;20823520;28;20296;-83
2022/04/28 19:59:28;;;;;;;2.60;1.13;;;;;;;;;;20855572;28;20228;-83
2022/04/28 20:09:29;;;;;;;3.83;1.47;;;;;;;;;;20789423;28;20211;-83
2022/04/28 20:19:33;;;;;;;2.50;1.13;;;;;;;;;;20808259;28;20245;-83
2022/04/28 20:29:35;;;;;;;2.37;1.20;;;18.80;95.20;;;;;;20791356;28;20589;-83
2022/04/28 20:39:37;;;;;;;2.13;1.37;;;;;;;;;;20807033;28;20220;-82
2022/04/28 20:49:39;;;;;;;1.50;1.10;;;;;;;;;;20843968;28;20281;-82
2022/04/28 20:59:41;;;;;;;1.47;0.90;;;;;;;;;;20808910;28;20227;-83
2022/04/28 21:09:43;;;;;;;2.70;1.10;;;;;;;;;;20839440;28;20215;-84
2022/04/28 21:19:44;;;;;;;2.73;1.10;;;;;;;;;;20833249;28;20232;-83
2022/04/28 21:29:46;;;;;;;1.20;0.80;;;;;;;;;;20830477;28;20204;-83
2022/04/28 21:39:48;;;;;;;1.90;0.93;;;;;;;;;;20828775;28;20218;-82
2022/04/28 21:49:50;;;;;;;1.53;0.90;;;;;;;;;;20833300;28;20575;-84
2022/04/28 21:59:52;;;;;;;2.50;1.10;;;;;;;;;;20846253;28;20230;-82
2022/04/28 22:20:15;;;;;;;4.83;1.00;;;17.20;99.90;;;;;;20797558;28;20296;-83
2022/04/28 22:30:17;;;;;;;2.00;1.27;;;;;;;;;;20742745;28;20238;-83
2022/04/28 22:40:19;;;;;;;1.90;1.30;;;;;;;;;;20743246;28;21272;-82
2022/04/28 22:50:21;;;;;;;2.00;1.10;;;;;;;;;;20842042;28;20219;-82
2022/04/28 23:00:23;;;;;;;3.20;1.40;;;;;;;;;;20809742;28;20502;-82
2022/04/28 23:10:25;;;;;;;1.57;1.20;;;;;;;;;;20840952;28;20210;-81
2022/04/28 23:20:27;;;;;;;1.73;1.20;;;;;;;;;;20816878;28;20226;-81
2022/04/28 23:30:29;;;;;;;1.97;1.20;;;;;;;;;;20817174;28;20214;-82
2022/04/28 23:40:33;;;;;;;1.30;0.90;;;;;;;;;;20819540;28;20269;-84
2022/04/28 23:50:35;;;;;;;3.00;1.00;;;;;;;;;;20829627;28;20210;-83
